Time;durP1;ratioP1;P1;durP2;ratioP2;P2;SDS_P1;SDS_P2;PMS_P1;PMS_P2;Temp;Humidity;BMP_temperature;BMP_pressure;BME280_temperature;BME280_humidity;BME280_pressure;Samples;Min_cycle;Max_cycle;Signal;HPM_P1;HPM_P2
2023/04/21 00:01:59;;;;;;;124.38;36.80;;;9.20;99.90;;;;;;5097602;28;20035;-67
2023/04/21 00:04:25;;;;;;;127.45;35.33;;;9.20;99.90;;;;;;5096605;28;20024;-67
2023/04/21 00:06:51;;;;;;;116.80;36.05;;;9.30;99.90;;;;;;5097641;28;20038;-67
2023/04/21 00:09:17;;;;;;;130.18;36.10;;;9.30;99.90;;;;;;5097105;28;20028;-67
2023/04/21 00:11:43;;;;;;;123.82;35.03;;;9.30;99.90;;;;;;5096519;28;20028;-67
2023/04/21 00:14:09;;;;;;;117.72;35.15;;;9.30;99.90;;;;;;5096523;28;20024;-67
2023/04/21 00:16:34;;;;;;;123.40;36.53;;;9.20;99.90;;;;;;5096821;28;20059;-67
2023/04/21 00:19:01;;;;;;;100.65;32.55;;;9.20;99.90;;;;;;5097687;28;20028;-67
2023/04/21 00:21:27;;;;;;;106.40;33.95;;;9.10;99.90;;;;;;5097356;28;20028;-67
2023/04/21 00:23:52;;;;;;;133.10;37.25;;;9.20;99.90;;;;;;5096334;28;20020;-67
2023/04/21 00:26:19;;;;;;;133.38;36.55;;;9.20;99.90;;;;;;5096698;28;20032;-67
2023/04/21 00:28:45;;;;;;;128.15;36.85;;;9.20;99.90;;;;;;5096429;28;20026;-67
2023/04/21 00:31:10;;;;;;;123.05;37.75;;;9.10;99.90;;;;;;5097280;28;20028;-67
2023/04/21 00:33:36;;;;;;;114.80;34.35;;;9.10;99.90;;;;;;5096163;28;20031;-67
2023/04/21 00:36:01;;;;;;;130.45;35.75;;;9.00;99.90;;;;;;5097070;28;20020;-67
2023/04/21 00:38:27;;;;;;;132.57;35.90;;;9.00;99.90;;;;;;5097339;28;20024;-67
2023/04/21 00:40:52;;;;;;;119.50;35.53;;;9.00;99.90;;;;;;5096494;28;20098;-67
2023/04/21 00:43:18;;;;;;;127.93;34.92;;;8.90;99.90;;;;;;5097274;28;20035;-67
2023/04/21 00:45:47;;;;;;;121.78;36.95;;;8.90;99.90;;;;;;5097082;28;20054;-67
2023/04/21 00:48:12;;;;;;;160.20;41.75;;;8.90;99.90;;;;;;5096422;28;20115;-67
2023/04/21 00:50:38;;;;;;;130.85;37.10;;;9.10;99.90;;;;;;5096482;28;20088;-67
2023/04/21 00:53:04;;;;;;;145.73;39.50;;;9.10;99.90;;;;;;5095999;28;20024;-67
2023/04/21 00:55:30;;;;;;;117.07;36.45;;;9.10;99.90;;;;;;5096144;28;20024;-67
2023/04/21 00:57:56;;;;;;;140.15;38.83;;;9.20;99.90;;;;;;5096122;28;20039;-67
2023/04/21 01:00:22;;;;;;;142.18;38.65;;;9.20;99.90;;;;;;5096058;28;20021;-67
2023/04/21 01:02:47;;;;;;;135.85;38.22;;;9.20;99.90;;;;;;5095993;28;20024;-67
2023/04/21 01:05:15;;;;;;;152.18;39.78;;;9.20;99.90;;;;;;5096845;28;20059;-67
2023/04/21 01:07:41;;;;;;;125.85;37.25;;;9.20;99.90;;;;;;5096086;28;20058;-67
2023/04/21 01:10:07;;;;;;;144.98;39.20;;;9.20;99.90;;;;;;5096088;28;20021;-67
2023/04/21 01:12:34;;;;;;;131.30;38.90;;;9.20;99.90;;;;;;5095734;28;20119;-67
2023/04/21 01:15:00;;;;;;;134.20;39.03;;;9.20;99.90;;;;;;5097035;28;20092;-67
2023/04/21 01:17:25;;;;;;;139.68;38.60;;;9.20;99.90;;;;;;5095935;28;20024;-67
2023/04/21 01:19:55;;;;;;;121.80;37.45;;;9.10;99.90;;;;;;5096761;28;20020;-67
2023/04/21 01:22:20;;;;;;;136.30;38.90;;;9.10;99.90;;;;;;5096593;28;20031;-67
2023/04/21 01:24:47;;;;;;;136.90;38.25;;;9.10;99.90;;;;;;5096158;28;20024;-67
2023/04/21 01:27:17;;;;;;;137.98;38.85;;;9.00;99.90;;;;;;5095835;28;20045;-67
2023/04/21 01:29:45;;;;;;;143.95;40.00;;;9.00;99.90;;;;;;5095887;28;20107;-67
2023/04/21 01:32:23;;;;;;;143.48;38.65;;;9.00;99.90;;;;;;5098833;28;20107;-67
2023/04/21 01:34:49;;;;;;;144.02;38.92;;;9.00;99.90;;;;;;5099653;28;20117;-67
2023/04/21 01:37:17;;;;;;;154.38;40.00;;;8.90;99.90;;;;;;5099802;28;20103;-67
2023/04/21 01:39:46;;;;;;;151.60;40.75;;;9.00;99.90;;;;;;5100312;28;20016;-67
2023/04/21 01:42:11;;;;;;;153.43;41.08;;;9.00;99.90;;;;;;5099261;28;20115;-67
2023/04/21 01:44:38;;;;;;;164.80;44.53;;;9.00;99.90;;;;;;5099688;28;20129;-67
2023/04/21 01:47:04;;;;;;;121.50;37.42;;;9.10;99.90;;;;;;5099664;28;20106;-67
2023/04/21 01:49:30;;;;;;;145.00;39.65;;;9.10;99.90;;;;;;5099710;28;20020;-67
2023/04/21 01:51:55;;;;;;;156.10;41.20;;;9.20;99.90;;;;;;5099126;28;20077;-67
2023/04/21 01:54:21;;;;;;;120.20;36.15;;;9.10;99.90;;;;;;5098902;28;20024;-67
2023/04/21 01:56:47;;;;;;;132.10;38.67;;;9.20;99.90;;;;;;5100205;28;20023;-67
2023/04/21 01:59:12;;;;;;;135.68;39.45;;;9.20;99.90;;;;;;5099097;28;20021;-67
2023/04/21 02:01:38;;;;;;;125.30;37.97;;;9.20;99.90;;;;;;5099261;28;20055;-67
2023/04/21 02:04:04;;;;;;;116.45;38.47;;;9.20;99.90;;;;;;5099812;28;20103;-67
2023/04/21 02:06:32;;;;;;;101.93;33.75;;;9.10;99.90;;;;;;5099790;28;20118;-67
2023/04/21 02:08:57;;;;;;;141.80;37.47;;;9.00;99.90;;;;;;5098845;28;20039;-67
2023/04/21 02:11:24;;;;;;;125.97;38.17;;;9.00;99.90;;;;;;5099795;28;20028;-67
2023/04/21 02:13:54;;;;;;;152.57;40.67;;;9.10;99.90;;;;;;5099631;28;20036;-67
2023/04/21 02:16:20;;;;;;;124.80;36.90;;;9.00;99.90;;;;;;5098753;28;20035;-67
2023/04/21 02:18:47;;;;;;;134.88;38.75;;;8.90;99.90;;;;;;5098693;28;20020;-67
2023/04/21 02:21:13;;;;;;;139.80;39.95;;;8.80;99.90;;;;;;5098693;28;20067;-67
2023/04/21 02:23:38;;;;;;;136.82;38.22;;;8.90;99.90;;;;;;5098662;28;20024;-67
2023/04/21 02:26:04;;;;;;;132.05;37.28;;;9.00;99.90;;;;;;5099351;28;20020;-67
2023/04/21 02:28:30;;;;;;;149.48;40.75;;;8.90;99.90;;;;;;5099635;28;20030;-67
2023/04/21 02:30:56;;;;;;;149.95;39.28;;;8.90;99.90;;;;;;5099476;28;20020;-67
2023/04/21 02:33:21;;;;;;;152.25;40.17;;;9.00;99.90;;;;;;5098526;28;20028;-67
2023/04/21 02:35:47;;;;;;;146.50;40.10;;;9.10;99.90;;;;;;5098641;28;20071;-67
2023/04/21 02:38:12;;;;;;;155.73;41.33;;;9.10;99.90;;;;;;5098256;28;20024;-67
2023/04/21 02:40:38;;;;;;;127.85;38.58;;;9.10;99.90;;;;;;5098233;28;20016;-67
2023/04/21 02:43:04;;;;;;;148.32;40.05;;;9.10;99.90;;;;;;5097915;28;20028;-67
2023/04/21 02:45:29;;;;;;;143.18;41.30;;;9.10;99.90;;;;;;5098159;28;20055;-67
2023/04/21 02:47:55;;;;;;;117.03;36.10;;;9.20;99.90;;;;;;5098700;28;20073;-68
2023/04/21 02:50:20;;;;;;;141.73;38.42;;;9.20;99.90;;;;;;5097953;28;20016;-67
2023/04/21 02:52:46;;;;;;;177.80;43.70;;;9.10;99.90;;;;;;5098769;28;20020;-67
2023/04/21 02:55:11;;;;;;;127.00;35.70;;;9.10;99.90;;;;;;5098094;28;20020;-67
2023/04/21 02:57:37;;;;;;;134.98;38.13;;;9.10;99.90;;;;;;5097919;28;20020;-67
2023/04/21 03:00:03;;;;;;;129.23;37.63;;;9.10;99.90;;;;;;5098294;28;20023;-67
2023/04/21 03:02:29;;;;;;;148.25;41.00;;;9.10;99.90;;;;;;5099076;28;20024;-67
2023/04/21 03:04:55;;;;;;;158.48;41.22;;;9.10;99.90;;;;;;5098737;28;20103;-67
2023/04/21 03:07:21;;;;;;;140.25;39.03;;;9.10;99.90;;;;;;5097694;28;20092;-67
2023/04/21 03:09:46;;;;;;;131.73;37.88;;;9.10;99.90;;;;;;5097755;28;20032;-67
2023/04/21 03:12:12;;;;;;;143.85;39.97;;;9.10;99.90;;;;;;5097670;28;20042;-67
2023/04/21 03:14:37;;;;;;;148.13;41.40;;;9.00;99.90;;;;;;5098701;28;20028;-67
2023/04/21 03:17:02;;;;;;;117.80;35.35;;;9.10;99.90;;;;;;5097520;28;20020;-68
2023/04/21 03:19:28;;;;;;;158.65;42.22;;;9.10;99.90;;;;;;5097856;28;20024;-67
2023/04/21 03:21:54;;;;;;;116.22;35.63;;;9.10;99.90;;;;;;5098582;28;20028;-68
2023/04/21 03:24:20;;;;;;;139.25;38.88;;;9.10;99.90;;;;;;5097419;28;20036;-68
2023/04/21 03:26:45;;;;;;;136.23;39.83;;;9.10;99.90;;;;;;5098355;28;20072;-68
2023/04/21 03:29:11;;;;;;;111.22;34.85;;;9.10;99.90;;;;;;5097848;28;20028;-68
2023/04/21 03:31:36;;;;;;;142.18;40.95;;;9.10;99.90;;;;;;5097451;28;20024;-68
2023/04/21 03:34:02;;;;;;;140.95;41.60;;;9.10;99.90;;;;;;5097763;28;20036;-68
2023/04/21 03:36:27;;;;;;;139.63;39.50;;;9.00;99.90;;;;;;5097975;28;20158;-68
2023/04/21 03:38:53;;;;;;;136.82;39.33;;;9.10;99.90;;;;;;5097974;28;20028;-68
2023/04/21 03:41:19;;;;;;;130.68;38.88;;;9.10;99.90;;;;;;5097115;28;20024;-68
2023/04/21 03:43:44;;;;;;;137.50;39.88;;;9.10;99.90;;;;;;5097933;28;20024;-68
2023/04/21 03:46:18;;;;;;;134.57;37.92;;;9.10;99.90;;;;;;5097069;28;20093;-68
2023/04/21 03:48:44;;;;;;;129.77;37.10;;;9.10;99.90;;;;;;5096810;28;20094;-68
2023/04/21 03:51:09;;;;;;;85.93;31.83;;;9.10;99.90;;;;;;5096855;28;20032;-68
2023/04/21 03:53:35;;;;;;;81.57;32.25;;;9.10;99.90;;;;;;5096823;28;20028;-68
2023/04/21 03:56:00;;;;;;;67.88;27.17;;;9.10;99.90;;;;;;5096828;28;20020;-68
2023/04/21 03:58:26;;;;;;;64.82;26.40;;;9.10;99.90;;;;;;5097171;28;20106;-68
2023/04/21 04:00:51;;;;;;;65.15;26.08;;;9.20;99.90;;;;;;5096638;28;20028;-68
2023/04/21 04:03:17;;;;;;;63.35;26.75;;;9.20;99.90;;;;;;5096683;28;20027;-68
2023/04/21 04:05:42;;;;;;;67.45;26.27;;;9.20;99.90;;;;;;5098043;28;20024;-68
2023/04/21 04:08:08;;;;;;;62.83;26.45;;;9.20;99.90;;;;;;5096947;28;20020;-68
2023/04/21 04:10:33;;;;;;;62.63;26.48;;;9.30;99.90;;;;;;5096527;28;20070;-68
2023/04/21 04:13:00;;;;;;;65.45;25.80;;;9.30;99.90;;;;;;5096483;28;20032;-68
2023/04/21 04:15:25;;;;;;;61.13;26.10;;;9.30;99.90;;;;;;5096669;28;20020;-68
2023/04/21 04:17:51;;;;;;;63.75;26.38;;;9.40;99.90;;;;;;5096426;28;20023;-68
2023/04/21 04:20:17;;;;;;;58.92;25.88;;;9.40;99.90;;;;;;5097348;28;20023;-68
2023/04/21 04:22:42;;;;;;;59.10;25.55;;;9.40;99.90;;;;;;5097364;28;20020;-68
2023/04/21 04:25:08;;;;;;;59.78;23.33;;;9.40;99.90;;;;;;5096357;28;20024;-68
2023/04/21 04:27:34;;;;;;;59.67;24.10;;;9.40;99.90;;;;;;5096301;28;20031;-68
2023/04/21 04:29:59;;;;;;;61.40;24.80;;;9.50;99.90;;;;;;5096369;28;20028;-68
2023/04/21 04:32:28;;;;;;;58.05;23.20;;;9.50;99.90;;;;;;5096116;28;20055;-68
2023/04/21 04:34:57;;;;;;;64.47;25.77;;;9.40;99.90;;;;;;5097221;28;20028;-68
2023/04/21 04:37:24;;;;;;;62.33;26.77;;;9.50;99.90;;;;;;5096646;28;20020;-68
2023/04/21 04:39:52;;;;;;;59.47;24.70;;;9.40;99.90;;;;;;5096256;28;20232;-68
2023/04/21 04:42:19;;;;;;;54.75;24.73;;;9.50;99.90;;;;;;5096489;28;20117;-68
2023/04/21 04:44:45;;;;;;;63.88;25.17;;;9.50;99.90;;;;;;5097019;28;20020;-68
2023/04/21 04:47:11;;;;;;;60.88;25.48;;;9.60;99.90;;;;;;5096132;28;20028;-68
2023/04/21 04:49:37;;;;;;;57.50;23.88;;;9.50;99.90;;;;;;5096192;28;20027;-68
2023/04/21 04:52:03;;;;;;;59.85;23.90;;;9.50;99.90;;;;;;5096056;28;20032;-68
2023/04/21 04:54:28;;;;;;;62.15;25.90;;;9.50;99.90;;;;;;5096336;28;20020;-68
2023/04/21 04:56:55;;;;;;;59.28;24.38;;;9.50;99.90;;;;;;5096358;28;20016;-68
2023/04/21 04:59:21;;;;;;;57.65;23.60;;;9.50;99.90;;;;;;5096619;28;20023;-68
2023/04/21 05:01:46;;;;;;;58.40;23.88;;;9.50;99.90;;;;;;5096276;28;20024;-68
2023/04/21 05:04:15;;;;;;;63.67;27.50;;;9.50;99.90;;;;;;5095936;28;20032;-68
2023/04/21 05:06:41;;;;;;;57.92;24.95;;;9.60;99.90;;;;;;5098955;28;20024;-68
2023/04/21 05:09:06;;;;;;;57.92;25.35;;;9.60;99.90;;;;;;5100999;28;20027;-68
2023/04/21 05:11:32;;;;;;;60.00;24.23;;;9.60;99.90;;;;;;5099940;28;20020;-68
2023/04/21 05:13:57;;;;;;;59.53;24.63;;;9.60;99.90;;;;;;5099832;28;20024;-67
2023/04/21 05:16:23;;;;;;;61.42;24.08;;;9.70;99.90;;;;;;5099798;28;20023;-68
2023/04/21 05:18:54;;;;;;;61.80;24.20;;;9.60;99.90;;;;;;5100163;28;20111;-68
2023/04/21 05:21:27;;;;;;;56.47;23.50;;;9.70;99.90;;;;;;5099751;28;20028;-68
2023/04/21 05:23:55;;;;;;;60.65;25.38;;;9.60;99.90;;;;;;5099728;28;20028;-68
2023/04/21 05:26:20;;;;;;;63.50;25.50;;;9.60;99.90;;;;;;5101000;28;20024;-68
2023/04/21 05:28:46;;;;;;;55.92;23.95;;;9.70;99.90;;;;;;5100462;28;20024;-68
2023/04/21 05:31:11;;;;;;;53.28;25.30;;;9.70;99.90;;;;;;5100526;28;20032;-68
2023/04/21 05:33:37;;;;;;;56.63;24.63;;;9.70;99.90;;;;;;5122108;22;20067;-70
2023/04/21 05:36:09;;;;;;;61.85;24.08;;;9.80;99.90;;;;;;5100511;28;20020;-70
2023/04/21 05:38:35;;;;;;;;;;;9.70;99.90;;;;;;5101124;28;20020;-70
2023/04/21 05:41:00;;;;;;;58.72;23.95;;;9.80;99.90;;;;;;5101401;28;19951;-70
2023/04/21 05:43:26;;;;;;;57.28;23.42;;;9.80;99.90;;;;;;5101411;28;20024;-70
2023/04/21 05:45:51;;;;;;;59.50;23.73;;;9.80;99.90;;;;;;5101207;28;20024;-70
2023/04/21 05:48:17;;;;;;;65.72;25.85;;;9.80;99.90;;;;;;5099597;28;20077;-70
2023/04/21 05:50:42;;;;;;;56.72;24.27;;;9.90;99.90;;;;;;5099145;28;20025;-70
2023/04/21 05:53:08;;;;;;;57.80;23.63;;;9.90;99.90;;;;;;5100234;28;20069;-70
2023/04/21 05:55:34;;;;;;;63.22;25.15;;;9.80;99.90;;;;;;5099494;28;20021;-70
2023/04/21 05:58:00;;;;;;;59.15;24.50;;;9.90;99.90;;;;;;5099194;28;20016;-70
2023/04/21 06:00:26;;;;;;;61.03;26.10;;;9.80;99.90;;;;;;5099166;28;20037;-70
2023/04/21 06:02:51;;;;;;;62.58;24.85;;;9.90;99.90;;;;;;5098948;28;20017;-70
2023/04/21 06:05:17;;;;;;;67.03;28.05;;;9.90;99.90;;;;;;5099939;28;20077;-69
2023/04/21 06:07:43;;;;;;;61.83;25.50;;;10.00;99.90;;;;;;5099498;28;20017;-70
2023/04/21 06:10:10;;;;;;;51.95;23.05;;;10.00;99.90;;;;;;5103212;28;20036;-70
2023/04/21 06:12:35;;;;;;;58.63;24.73;;;10.00;99.90;;;;;;5099527;28;20024;-70
2023/04/21 06:15:01;;;;;;;58.55;26.02;;;10.00;99.90;;;;;;5098757;28;20031;-70
2023/04/21 06:17:26;;;;;;;60.08;25.08;;;10.10;99.90;;;;;;5101399;28;20032;-70
2023/04/21 06:19:52;;;;;;;59.03;24.42;;;10.10;99.90;;;;;;5099602;28;20131;-70
2023/04/21 06:22:22;;;;;;;64.72;26.90;;;10.10;99.90;;;;;;5099680;28;20095;-70
2023/04/21 06:24:47;;;;;;;58.22;23.90;;;10.20;99.90;;;;;;5099134;28;20119;-69
2023/04/21 06:27:13;;;;;;;58.83;25.50;;;10.20;99.90;;;;;;5099653;28;20055;-69
2023/04/21 06:29:41;;;;;;;58.20;24.10;;;10.20;99.90;;;;;;5099184;28;20027;-69
2023/04/21 06:32:07;;;;;;;55.95;23.65;;;10.20;99.90;;;;;;5099498;28;20031;-69
2023/04/21 06:34:33;;;;;;;56.38;23.85;;;10.30;99.90;;;;;;5098898;28;20028;-70
2023/04/21 06:36:58;;;;;;;59.05;25.13;;;10.30;99.90;;;;;;5098788;28;20012;-71
2023/04/21 06:39:24;;;;;;;59.03;24.75;;;10.40;99.90;;;;;;5099260;28;20028;-70
2023/04/21 06:41:49;;;;;;;57.13;24.15;;;10.40;99.90;;;;;;5099122;28;20035;-70
2023/04/21 06:44:15;;;;;;;57.92;25.58;;;10.40;99.90;;;;;;5099188;28;20021;-71
2023/04/21 06:46:41;;;;;;;58.20;25.23;;;10.50;99.90;;;;;;5098418;28;20115;-71
2023/04/21 06:49:07;;;;;;;60.47;25.58;;;10.60;99.90;;;;;;5099024;28;20034;-71
2023/04/21 06:51:33;;;;;;;61.88;25.50;;;10.60;99.90;;;;;;5100085;28;20024;-70
2023/04/21 06:53:58;;;;;;;64.10;25.50;;;10.60;99.90;;;;;;5098066;28;20023;-71
2023/04/21 06:56:26;;;;;;;57.25;24.67;;;10.60;99.90;;;;;;5099009;28;20031;-70
2023/04/21 06:58:52;;;;;;;62.80;24.55;;;10.60;99.90;;;;;;5098949;28;20055;-71
2023/04/21 07:01:18;;;;;;;54.15;24.30;;;10.60;99.90;;;;;;5098956;28;20027;-70
2023/04/21 07:03:43;;;;;;;52.90;23.90;;;10.70;99.90;;;;;;5098121;28;20024;-71
2023/04/21 07:06:09;;;;;;;55.47;26.08;;;10.70;99.90;;;;;;5098167;28;20114;-71
2023/04/21 07:08:35;;;;;;;53.63;24.48;;;10.70;99.90;;;;;;5099259;28;20122;-71
2023/04/21 07:11:00;;;;;;;54.45;22.85;;;10.70;99.90;;;;;;5098127;28;20047;-71
2023/04/21 07:13:26;;;;;;;54.20;23.10;;;10.70;99.90;;;;;;5098076;28;20118;-71
2023/04/21 07:15:52;;;;;;;56.75;23.65;;;10.70;99.90;;;;;;5098734;28;20107;-72
2023/04/21 07:18:17;;;;;;;54.10;23.65;;;10.70;99.90;;;;;;5099081;28;20024;-71
2023/04/21 07:20:43;;;;;;;58.60;23.67;;;10.70;99.90;;;;;;5100596;28;20016;-71
2023/04/21 07:23:09;;;;;;;54.63;23.98;;;10.70;99.90;;;;;;5097482;28;20087;-71
2023/04/21 07:25:35;;;;;;;51.47;23.58;;;10.70;99.90;;;;;;5097455;28;20028;-71
2023/04/21 07:28:02;;;;;;;54.63;24.70;;;10.80;99.90;;;;;;5097839;28;20020;-72
2023/04/21 07:30:28;;;;;;;55.33;23.85;;;10.80;99.90;;;;;;5097833;28;20036;-72
2023/04/21 07:32:54;;;;;;;55.65;24.60;;;10.90;99.90;;;;;;5097947;28;20118;-72
2023/04/21 07:35:19;;;;;;;53.28;24.20;;;10.80;99.90;;;;;;5097823;28;20047;-71
2023/04/21 07:37:45;;;;;;;55.80;23.58;;;10.90;99.90;;;;;;5098054;28;20027;-71
2023/04/21 07:40:11;;;;;;;55.35;23.52;;;10.90;99.90;;;;;;5098345;28;20031;-71
2023/04/21 07:42:37;;;;;;;55.83;24.70;;;11.00;99.90;;;;;;5098158;28;20096;-72
2023/04/21 07:45:03;;;;;;;55.90;24.15;;;11.00;99.90;;;;;;5097546;28;20021;-71
2023/04/21 07:47:29;;;;;;;53.72;24.45;;;11.00;99.90;;;;;;5097482;28;20032;-71
2023/04/21 07:49:55;;;;;;;58.33;24.27;;;11.10;99.90;;;;;;5098160;28;20020;-71
2023/04/21 07:52:20;;;;;;;58.13;24.65;;;11.10;99.90;;;;;;5097735;28;20096;-71
2023/04/21 07:54:46;;;;;;;57.53;23.90;;;11.20;99.90;;;;;;5097290;28;20042;-72
2023/04/21 07:57:11;;;;;;;46.53;21.88;;;11.20;99.90;;;;;;5097630;28;20191;-72
2023/04/21 07:59:37;;;;;;;48.90;22.55;;;11.20;99.90;;;;;;5097107;28;20031;-72
2023/04/21 08:02:03;;;;;;;51.75;23.58;;;11.30;99.90;;;;;;5097171;28;20024;-72
2023/04/21 08:04:28;;;;;;;52.92;23.08;;;11.40;99.90;;;;;;5096944;28;20067;-72
2023/04/21 08:06:54;;;;;;;53.08;23.95;;;11.40;99.90;;;;;;5097385;28;20144;-72
2023/04/21 08:09:19;;;;;;;53.70;24.00;;;11.50;99.90;;;;;;5097279;28;20028;-72
2023/04/21 08:11:46;;;;;;;50.88;24.60;;;11.50;99.90;;;;;;5097189;28;20028;-72
2023/04/21 08:14:12;;;;;;;53.17;23.63;;;11.50;99.90;;;;;;5097104;28;20048;-72
2023/04/21 08:16:39;;;;;;;52.97;23.73;;;11.50;99.90;;;;;;5097473;28;20046;-72
2023/04/21 08:19:06;;;;;;;52.60;24.67;;;11.50;99.90;;;;;;5096846;28;20024;-72
2023/04/21 08:21:32;;;;;;;54.70;23.15;;;11.60;99.90;;;;;;5097402;28;20046;-72
2023/04/21 08:23:58;;;;;;;53.72;24.05;;;11.60;99.90;;;;;;5097382;28;20012;-72
2023/04/21 08:26:24;;;;;;;55.25;24.60;;;11.60;99.90;;;;;;5097724;28;20020;-72
2023/04/21 08:28:51;;;;;;;50.35;24.60;;;11.70;99.90;;;;;;5096972;28;20063;-72
2023/04/21 08:31:17;;;;;;;47.00;22.67;;;11.80;99.90;;;;;;5096843;28;20078;-72
2023/04/21 08:33:43;;;;;;;52.15;24.38;;;11.80;99.90;;;;;;5096826;28;20068;-72
2023/04/21 08:36:10;;;;;;;41.15;19.95;;;11.80;99.90;;;;;;5097490;28;20031;-72
2023/04/21 08:38:37;;;;;;;44.83;19.63;;;11.80;99.90;;;;;;5096349;28;20021;-72
2023/04/21 08:41:03;;;;;;;45.92;20.88;;;11.90;99.90;;;;;;5096384;28;20028;-73
2023/04/21 08:43:29;;;;;;;43.50;18.65;;;12.10;99.90;;;;;;5096333;28;20031;-72
2023/04/21 08:45:55;;;;;;;46.50;22.60;;;12.20;99.90;;;;;;5097068;28;20028;-73
2023/04/21 08:48:22;;;;;;;38.28;17.98;;;12.40;99.90;;;;;;5097066;28;20031;-73
2023/04/21 08:50:52;;;;;;;40.10;17.98;;;12.50;99.90;;;;;;5097110;28;20024;-72
2023/04/21 08:53:18;;;;;;;34.17;17.88;;;12.70;99.90;;;;;;5097111;28;20082;-72
2023/04/21 08:55:44;;;;;;;36.08;16.73;;;12.90;99.90;;;;;;5096730;28;20088;-72
2023/04/21 08:58:10;;;;;;;33.40;18.13;;;12.90;99.90;;;;;;5096229;28;20070;-73
2023/04/21 09:00:36;;;;;;;34.88;16.83;;;13.00;99.90;;;;;;5097614;28;20115;-73
2023/04/21 09:03:03;;;;;;;33.38;16.42;;;13.10;99.90;;;;;;5096452;28;20082;-72
2023/04/21 09:05:31;;;;;;;33.78;17.05;;;13.20;99.90;;;;;;5096324;28;20025;-72
2023/04/21 09:08:15;;;;;;;30.60;16.13;;;13.30;99.90;;;;;;5096039;28;20016;-72
2023/04/21 09:10:51;;;;;;;31.85;15.95;;;13.30;99.90;;;;;;5096689;28;20020;-72
2023/04/21 09:13:18;;;;;;;26.15;14.75;;;13.30;99.90;;;;;;5096289;28;20020;-72
2023/04/21 09:15:46;;;;;;;33.40;15.85;;;13.20;99.90;;;;;;5096485;28;20027;-72
2023/04/21 09:18:22;;;;;;;34.33;15.27;;;13.30;99.90;;;;;;5096389;28;20073;-72
2023/04/21 09:20:51;;;;;;;28.20;15.23;;;13.30;99.90;;;;;;5096580;28;20024;-73
2023/04/21 09:23:17;;;;;;;32.00;16.33;;;13.40;99.90;;;;;;5096583;28;20020;-72
2023/04/21 09:25:44;;;;;;;30.17;14.63;;;13.40;99.90;;;;;;5096353;28;20085;-73
2023/04/21 09:28:11;;;;;;;28.08;15.48;;;13.40;99.90;;;;;;5096180;28;20049;-72
2023/04/21 09:30:38;;;;;;;29.95;15.38;;;13.40;99.90;;;;;;5096768;28;20024;-72
2023/04/21 09:33:04;;;;;;;29.13;14.98;;;13.40;99.90;;;;;;5095598;28;20028;-73
2023/04/21 09:35:35;;;;;;;31.42;13.55;;;13.40;99.90;;;;;;5097128;28;20027;-73
2023/04/21 09:38:02;;;;;;;30.80;13.95;;;13.30;99.90;;;;;;5096176;28;20020;-73
2023/04/21 09:40:29;;;;;;;30.00;14.00;;;13.20;99.90;;;;;;5096793;28;20024;-73
2023/04/21 09:42:54;;;;;;;29.05;14.02;;;13.30;99.90;;;;;;5095936;28;20121;-73
2023/04/21 09:45:26;;;;;;;26.95;13.55;;;13.30;99.90;;;;;;5096132;28;20020;-73
2023/04/21 09:47:55;;;;;;;25.05;13.02;;;13.40;99.90;;;;;;5096589;28;20089;-73
2023/04/21 09:50:22;;;;;;;23.40;12.88;;;13.30;99.90;;;;;;5096058;28;20082;-73
2023/04/21 09:52:51;;;;;;;25.40;12.95;;;13.30;99.90;;;;;;5097650;28;20046;-73
2023/04/21 09:55:18;;;;;;;26.35;13.60;;;13.30;99.90;;;;;;5099732;28;20043;-73
2023/04/21 09:57:47;;;;;;;25.27;13.23;;;13.40;99.90;;;;;;5099683;28;20032;-73
2023/04/21 10:00:14;;;;;;;24.23;13.27;;;13.40;99.90;;;;;;5099356;28;20024;-73
2023/04/21 10:02:43;;;;;;;23.30;12.10;;;13.50;99.90;;;;;;5099487;28;20020;-73
2023/04/21 10:05:11;;;;;;;27.88;13.40;;;13.50;99.90;;;;;;5099114;28;20028;-73
2023/04/21 10:07:37;;;;;;;22.48;12.88;;;13.50;99.90;;;;;;5099811;28;20031;-73
2023/04/21 10:10:08;;;;;;;27.80;13.40;;;13.40;99.90;;;;;;5099432;28;20020;-73
2023/04/21 10:12:34;;;;;;;24.33;12.68;;;13.40;99.90;;;;;;5099195;28;20051;-73
2023/04/21 10:15:25;;;;;;;24.58;13.50;;;13.40;99.90;;;;;;5099834;28;20034;-73
2023/04/21 10:17:51;;;;;;;28.70;12.65;;;13.40;99.90;;;;;;5100752;28;20020;-73
2023/04/21 10:20:17;;;;;;;22.67;11.82;;;13.50;99.90;;;;;;5099755;28;20025;-73
2023/04/21 10:22:42;;;;;;;19.17;10.70;;;13.60;99.90;;;;;;5099854;28;20016;-73
2023/04/21 10:25:12;;;;;;;21.63;11.15;;;13.60;99.90;;;;;;5099790;28;20024;-73
2023/04/21 10:27:42;;;;;;;22.58;10.88;;;13.70;99.90;;;;;;5099609;28;20020;-73
2023/04/21 10:30:21;;;;;;;20.85;11.40;;;13.70;99.90;;;;;;5099861;28;20020;-73
2023/04/21 10:32:47;;;;;;;23.42;11.43;;;13.80;99.90;;;;;;5099655;28;20023;-73
2023/04/21 10:35:20;;;;;;;21.75;11.43;;;13.90;99.90;;;;;;5104360;28;20119;-73
2023/04/21 10:37:47;;;;;;;22.15;10.70;;;13.90;99.90;;;;;;5101574;28;20020;-73
2023/04/21 10:40:34;;;;;;;20.38;11.15;;;13.90;99.90;;;;;;5098719;28;20028;-73
2023/04/21 10:43:01;;;;;;;22.15;10.90;;;13.90;99.90;;;;;;5098980;28;20035;-73
2023/04/21 10:45:27;;;;;;;18.40;10.32;;;13.90;99.90;;;;;;5098321;28;20024;-73
2023/04/21 10:47:53;;;;;;;26.15;12.23;;;13.90;99.90;;;;;;5099037;28;20024;-73
2023/04/21 10:50:26;;;;;;;20.73;11.38;;;13.90;99.90;;;;;;5098662;28;20020;-73
2023/04/21 10:52:55;;;;;;;19.27;10.32;;;13.90;99.90;;;;;;5098249;28;20022;-73
2023/04/21 10:55:21;;;;;;;21.55;10.80;;;13.90;99.90;;;;;;5098158;28;20023;-73
2023/04/21 10:57:47;;;;;;;20.67;11.18;;;14.00;99.90;;;;;;5098343;28;20016;-73
2023/04/21 11:00:24;;;;;;;20.10;10.57;;;14.00;99.90;;;;;;5098343;28;20020;-73
2023/04/21 11:03:01;;;;;;;18.52;10.50;;;14.20;99.90;;;;;;5098728;28;20081;-73
2023/04/21 11:05:39;;;;;;;21.50;10.25;;;14.30;99.90;;;;;;5097579;28;20024;-73
2023/04/21 11:08:05;;;;;;;18.25;10.05;;;14.40;99.90;;;;;;5097894;28;20036;-74
2023/04/21 11:10:55;;;;;;;17.05;9.60;;;14.50;99.90;;;;;;5098739;28;20024;-73
2023/04/21 11:13:25;;;;;;;18.15;10.25;;;14.70;99.90;;;;;;5098388;28;20066;-73
2023/04/21 11:16:05;;;;;;;14.17;9.23;;;14.70;99.90;;;;;;5098548;28;20027;-73
2023/04/21 11:18:38;;;;;;;13.70;8.95;;;14.80;99.90;;;;;;5098497;28;20026;-73
2023/04/21 11:21:16;;;;;;;21.65;9.77;;;14.80;99.90;;;;;;5097580;28;20020;-73
2023/04/21 11:23:49;;;;;;;17.23;9.98;;;14.80;99.90;;;;;;5097569;28;20027;-73
2023/04/21 11:26:16;;;;;;;16.98;10.00;;;14.90;99.90;;;;;;5097706;28;20020;-73
2023/04/21 11:28:42;;;;;;;20.23;11.27;;;15.00;99.90;;;;;;5097898;28;20032;-73
2023/04/21 11:31:08;;;;;;;18.75;9.95;;;15.10;99.90;;;;;;5098083;28;20024;-73
2023/04/21 11:33:39;;;;;;;16.20;9.77;;;15.20;99.90;;;;;;5113051;22;20024;-69
2023/04/21 11:36:05;;;;;;;;;;;15.20;99.90;;;;;;5077783;28;20055;-69
2023/04/21 11:38:38;;;;;;;16.00;9.80;;;15.20;99.90;;;;;;5077315;28;19904;-69
2023/04/21 11:41:04;;;;;;;18.83;8.95;;;15.20;99.90;;;;;;5079867;28;20024;-69
2023/04/21 11:43:30;;;;;;;17.65;9.32;;;15.20;99.90;;;;;;5077244;28;20025;-69
2023/04/21 11:46:10;;;;;;;17.98;9.45;;;15.20;99.90;;;;;;5077266;28;20032;-69
2023/04/21 11:48:36;;;;;;;14.43;9.63;;;15.30;99.90;;;;;;5077697;28;20032;-69
2023/04/21 11:51:01;;;;;;;18.23;9.52;;;15.30;99.90;;;;;;5077092;28;20031;-69
2023/04/21 11:53:28;;;;;;;14.13;8.40;;;15.30;99.90;;;;;;5076520;28;20087;-69
2023/04/21 11:55:55;;;;;;;20.42;9.43;;;15.30;99.90;;;;;;5077861;28;20021;-69
2023/04/21 11:58:21;;;;;;;22.38;10.38;;;15.30;99.90;;;;;;5076562;28;20059;-68
2023/04/21 12:00:46;;;;;;;19.38;9.95;;;15.30;99.90;;;;;;5076982;28;20021;-69
2023/04/21 12:03:12;;;;;;;17.65;9.27;;;15.30;99.90;;;;;;5076407;28;20023;-68
2023/04/21 12:05:38;;;;;;;18.77;10.23;;;15.40;99.90;;;;;;5076496;28;20021;-69
2023/04/21 12:08:05;;;;;;;17.20;10.40;;;15.30;99.90;;;;;;5076478;28;20017;-69
2023/04/21 12:10:30;;;;;;;21.08;10.48;;;15.30;99.90;;;;;;5076923;28;20028;-69
2023/04/21 12:12:56;;;;;;;21.80;10.05;;;15.30;99.90;;;;;;5077088;28;20059;-69
2023/04/21 12:15:22;;;;;;;21.42;10.13;;;15.30;99.90;;;;;;5076367;28;20024;-69
2023/04/21 12:17:54;;;;;;;19.02;10.45;;;15.20;99.90;;;;;;5076636;28;20109;-68
2023/04/21 12:20:21;;;;;;;22.15;11.13;;;15.20;99.90;;;;;;5077616;28;20059;-68
2023/04/21 12:22:48;;;;;;;19.30;10.13;;;15.30;99.90;;;;;;5076842;28;20028;-69
2023/04/21 12:25:14;;;;;;;19.23;9.43;;;15.30;99.90;;;;;;5076500;28;20102;-69
2023/04/21 12:27:56;;;;;;;20.17;10.50;;;15.30;99.90;;;;;;5076523;28;20029;-69
2023/04/21 12:30:22;;;;;;;18.13;9.32;;;15.30;99.90;;;;;;5077240;28;20032;-69